Time;durP1;ratioP1;P1;durP2;ratioP2;P2;SDS_P1;SDS_P2;PMS_P1;PMS_P2;Temp;Humidity;BMP_temperature;BMP_pressure;BME280_temperature;BME280_humidity;BME280_pressure;Samples;Min_cycle;Max_cycle;Signal;HPM_P1;HPM_P2
2021/10/13 00:01:02;;;;;;;23.00;8.50;;;11.50;99.90;;;;;;6182610;23;19997;-87
2021/10/13 00:03:28;;;;;;;23.65;9.10;;;11.50;99.90;;;;;;6182445;23;20001;-87
2021/10/13 00:05:53;;;;;;;15.05;8.63;;;11.40;99.90;;;;;;6182947;23;20005;-90
2021/10/13 00:08:19;;;;;;;19.25;8.50;;;11.50;99.90;;;;;;6182812;23;20029;-87
2021/10/13 00:10:46;;;;;;;19.98;7.95;;;11.40;99.90;;;;;;6156052;23;20001;-87
2021/10/13 00:13:13;;;;;;;16.83;9.00;;;11.50;99.90;;;;;;6182515;23;20339;-87
2021/10/13 00:15:42;;;;;;;17.90;9.85;;;11.40;99.90;;;;;;6182625;23;19997;-87
2021/10/13 00:18:08;;;;;;;12.32;7.75;;;11.40;99.90;;;;;;6182277;23;20009;-87
2021/10/13 00:20:34;;;;;;;17.05;9.77;;;11.40;99.90;;;;;;6181906;23;20011;-87
2021/10/13 00:23:00;;;;;;;15.70;9.50;;;11.40;99.90;;;;;;6155599;23;20028;-87
2021/10/13 00:25:26;;;;;;;18.15;9.00;;;11.30;99.90;;;;;;6182162;23;20008;-87
2021/10/13 00:27:51;;;;;;;15.35;9.00;;;11.30;99.90;;;;;;6181644;23;20009;-87
2021/10/13 00:30:17;;;;;;;15.27;8.82;;;11.30;99.90;;;;;;6182260;23;19997;-87
2021/10/13 00:32:43;;;;;;;19.27;9.55;;;11.20;99.90;;;;;;6155654;23;20427;-87
2021/10/13 00:35:10;;;;;;;16.60;9.13;;;11.20;99.90;;;;;;6181906;23;20312;-87
2021/10/13 00:37:38;;;;;;;20.85;9.40;;;11.20;99.90;;;;;;6155386;23;20012;-87
2021/10/13 00:40:06;;;;;;;16.90;9.65;;;11.10;99.90;;;;;;6182225;23;20001;-87
2021/10/13 00:42:32;;;;;;;18.13;9.02;;;11.10;99.90;;;;;;6181980;23;20431;-87
2021/10/13 00:44:57;;;;;;;15.60;8.95;;;11.10;99.90;;;;;;6181862;23;20025;-87
2021/10/13 00:47:23;;;;;;;18.88;10.10;;;11.00;99.90;;;;;;6181823;23;20533;-87
2021/10/13 00:49:49;;;;;;;18.55;8.82;;;11.00;99.90;;;;;;6181638;23;20274;-87
2021/10/13 00:52:16;;;;;;;15.85;9.88;;;11.00;99.90;;;;;;6182050;23;20004;-87
2021/10/13 00:54:46;;;;;;;22.95;10.02;;;11.10;99.90;;;;;;6181928;23;20008;-87
2021/10/13 00:57:12;;;;;;;19.13;9.35;;;11.10;99.90;;;;;;6181563;23;20009;-87
2021/10/13 00:59:38;;;;;;;16.85;9.55;;;11.10;99.90;;;;;;6155379;23;20008;-87
2021/10/13 01:02:07;;;;;;;23.50;9.35;;;11.10;99.90;;;;;;6181803;23;20002;-90
2021/10/13 01:05:05;;;;;;;21.95;9.50;;;11.20;99.90;;;;;;6182152;23;20442;-87
2021/10/13 01:07:59;;;;;;;17.85;9.25;;;11.20;99.90;;;;;;6154946;23;20064;-87
2021/10/13 01:11:02;;;;;;;18.70;9.77;;;11.20;99.90;;;;;;6182457;23;20001;-87
2021/10/13 01:13:56;;;;;;;17.10;9.50;;;11.20;99.90;;;;;;6155989;23;20337;-87
2021/10/13 01:16:48;;;;;;;20.35;9.95;;;11.20;99.90;;;;;;6155258;23;20005;-87
2021/10/13 01:19:20;;;;;;;20.13;10.18;;;11.20;99.90;;;;;;6136550;23;20088;-87
2021/10/13 01:22:12;;;;;;;19.27;10.15;;;11.10;99.90;;;;;;6182284;23;20001;-87
2021/10/13 01:25:10;;;;;;;18.30;9.90;;;11.20;99.90;;;;;;6183410;23;20020;-87
2021/10/13 01:27:51;;;;;;;19.40;9.95;;;11.10;99.90;;;;;;6184245;23;20005;-87
2021/10/13 01:30:18;;;;;;;19.83;10.60;;;11.10;99.90;;;;;;6184338;23;20001;-87
2021/10/13 01:32:52;;;;;;;18.27;9.05;;;11.10;99.90;;;;;;6184254;23;20005;-87
2021/10/13 01:35:19;;;;;;;18.67;9.97;;;11.10;99.90;;;;;;6183901;23;20001;-87
2021/10/13 01:37:55;;;;;;;19.25;9.75;;;11.20;99.90;;;;;;6183704;23;20252;-87
2021/10/13 01:40:24;;;;;;;19.38;10.55;;;11.10;99.90;;;;;;6157495;23;20005;-87
2021/10/13 01:42:52;;;;;;;19.88;10.88;;;11.10;99.90;;;;;;6157086;23;20004;-87
2021/10/13 01:45:19;;;;;;;19.75;10.82;;;11.20;99.90;;;;;;6183566;23;20153;-87
2021/10/13 01:47:47;;;;;;;18.20;10.88;;;11.10;99.90;;;;;;6183318;23;20391;-87
2021/10/13 01:50:14;;;;;;;21.52;11.70;;;11.10;99.90;;;;;;6157176;23;20469;-87
2021/10/13 01:52:41;;;;;;;20.80;11.45;;;11.20;99.90;;;;;;6183539;23;20076;-87
2021/10/13 01:55:08;;;;;;;17.58;10.30;;;11.20;99.90;;;;;;6156977;23;20012;-87
2021/10/13 01:57:35;;;;;;;17.90;10.55;;;11.20;99.90;;;;;;6156997;23;20013;-87
2021/10/13 02:00:07;;;;;;;20.60;9.93;;;11.20;99.90;;;;;;6183790;23;20005;-87
2021/10/13 02:02:34;;;;;;;17.50;10.55;;;11.20;99.90;;;;;;6156975;23;20009;-87
2021/10/13 02:05:02;;;;;;;20.65;11.40;;;11.20;99.90;;;;;;6185832;23;19997;-87
2021/10/13 02:07:31;;;;;;;17.02;10.63;;;11.20;99.90;;;;;;6187233;23;20001;-87
2021/10/13 02:10:03;;;;;;;15.02;9.85;;;11.10;99.90;;;;;;6160656;23;20001;-87
2021/10/13 02:12:32;;;;;;;21.40;11.13;;;11.10;99.90;;;;;;6160879;23;20005;-88
2021/10/13 02:15:00;;;;;;;28.45;11.35;;;11.10;99.90;;;;;;6198152;23;20012;-88
2021/10/13 02:17:25;;;;;;;17.02;10.73;;;11.10;99.90;;;;;;6197716;23;20147;-87
2021/10/13 02:19:53;;;;;;;16.25;10.30;;;11.00;99.90;;;;;;6197547;23;20174;-87
2021/10/13 02:22:26;;;;;;;19.23;11.20;;;11.10;99.90;;;;;;6171956;23;20031;-87
2021/10/13 02:24:52;;;;;;;21.58;10.52;;;11.00;99.90;;;;;;6185747;23;20375;-86
2021/10/13 02:27:30;;;;;;;17.60;10.50;;;11.00;99.90;;;;;;6157380;23;20005;-87
2021/10/13 02:29:56;;;;;;;19.92;10.85;;;11.00;99.90;;;;;;6183636;23;20080;-87
2021/10/13 02:32:22;;;;;;;25.92;10.35;;;11.00;99.90;;;;;;6183376;23;20037;-87
2021/10/13 02:34:48;;;;;;;19.73;10.80;;;11.00;99.90;;;;;;6183478;23;20438;-87
2021/10/13 02:37:15;;;;;;;26.38;12.00;;;10.90;99.90;;;;;;6157384;23;20059;-87
2021/10/13 02:39:41;;;;;;;19.13;10.77;;;11.00;99.90;;;;;;6183947;23;20092;-87
2021/10/13 02:42:07;;;;;;;24.52;10.65;;;10.90;99.90;;;;;;6157693;23;20037;-87
2021/10/13 02:44:33;;;;;;;15.75;10.00;;;10.90;99.90;;;;;;6183924;23;20005;-87
2021/10/13 02:47:06;;;;;;;17.45;10.23;;;10.90;99.90;;;;;;6183511;23;20001;-87
2021/10/13 02:49:50;;;;;;;21.17;10.47;;;10.90;99.90;;;;;;6183178;23;20036;-87
2021/10/13 02:52:29;;;;;;;16.30;9.73;;;10.80;99.90;;;;;;6156582;23;20341;-87
2021/10/13 02:55:20;;;;;;;19.55;10.50;;;10.80;99.90;;;;;;6156745;23;20332;-87
2021/10/13 02:57:53;;;;;;;20.83;10.45;;;10.80;99.90;;;;;;6182962;23;20068;-87
2021/10/13 03:00:21;;;;;;;21.92;10.38;;;10.70;99.90;;;;;;6156529;23;20005;-87
2021/10/13 03:02:57;;;;;;;21.70;11.20;;;10.70;99.90;;;;;;6182713;23;20048;-87
2021/10/13 03:05:24;;;;;;;15.70;10.07;;;10.70;99.90;;;;;;6156651;23;20156;-87
2021/10/13 03:07:52;;;;;;;19.25;10.18;;;10.80;99.90;;;;;;6183118;23;20040;-87
2021/10/13 03:10:19;;;;;;;18.50;10.18;;;10.70;99.90;;;;;;6183397;23;20005;-87
2021/10/13 03:12:57;;;;;;;18.48;11.40;;;10.70;99.90;;;;;;6183623;23;20004;-87
2021/10/13 03:15:25;;;;;;;18.33;10.38;;;10.70;99.90;;;;;;6157053;23;20005;-87
2021/10/13 03:17:56;;;;;;;17.77;10.90;;;10.70;99.90;;;;;;6183140;23;20009;-88
2021/10/13 03:20:23;;;;;;;16.00;10.68;;;10.60;99.90;;;;;;6182901;23;20020;-88
2021/10/13 03:22:52;;;;;;;22.02;11.68;;;10.60;99.90;;;;;;6182689;23;20005;-88
2021/10/13 03:25:29;;;;;;;21.52;10.98;;;10.70;99.90;;;;;;6182532;23;20101;-87
2021/10/13 03:27:56;;;;;;;17.00;9.55;;;10.70;99.90;;;;;;6182480;23;20001;-87
2021/10/13 03:30:21;;;;;;;16.38;9.63;;;10.70;99.90;;;;;;6156493;23;20001;-88
2021/10/13 03:32:48;;;;;;;20.35;11.10;;;10.70;99.90;;;;;;6156244;23;20012;-88
2021/10/13 03:35:32;;;;;;;22.67;11.75;;;10.60;99.90;;;;;;6182652;23;20028;-87
2021/10/13 03:38:01;;;;;;;20.42;11.05;;;10.60;99.90;;;;;;6156237;23;20017;-87
2021/10/13 03:40:27;;;;;;;17.25;10.82;;;10.60;99.90;;;;;;6182666;23;20209;-88
2021/10/13 03:42:53;;;;;;;18.08;10.73;;;10.60;99.90;;;;;;6182533;23;20009;-87
2021/10/13 03:45:21;;;;;;;17.25;10.23;;;10.60;99.90;;;;;;6182516;23;20081;-87
2021/10/13 03:47:48;;;;;;;22.77;10.55;;;10.60;99.90;;;;;;6182453;23;20067;-88
2021/10/13 03:50:16;;;;;;;15.63;10.43;;;10.50;99.90;;;;;;6182454;23;20006;-87
2021/10/13 03:52:42;;;;;;;18.85;10.93;;;10.60;99.90;;;;;;6182490;23;20012;-87
2021/10/13 03:55:11;;;;;;;24.40;10.50;;;10.60;99.90;;;;;;6182578;23;19997;-88
2021/10/13 03:57:36;;;;;;;17.60;10.10;;;10.60;99.90;;;;;;6155725;23;20478;-88
2021/10/13 04:00:07;;;;;;;16.00;9.80;;;10.60;99.90;;;;;;6182291;23;20072;-87
2021/10/13 04:02:33;;;;;;;19.80;10.38;;;10.50;99.90;;;;;;6155515;23;20088;-87
2021/10/13 04:04:59;;;;;;;25.52;10.48;;;10.50;99.90;;;;;;6182391;23;20399;-87
2021/10/13 04:07:25;;;;;;;16.70;10.70;;;10.50;99.90;;;;;;6182391;23;20347;-87
2021/10/13 04:09:50;;;;;;;17.25;10.10;;;10.40;99.90;;;;;;6182715;23;19997;-87
2021/10/13 04:12:16;;;;;;;17.95;10.57;;;10.30;99.90;;;;;;6182213;23;20009;-88
2021/10/13 04:14:42;;;;;;;17.48;9.80;;;10.30;99.90;;;;;;6182161;23;20001;-87
2021/10/13 04:17:08;;;;;;;25.45;10.82;;;10.30;99.90;;;;;;6181905;23;20453;-87
2021/10/13 04:19:34;;;;;;;14.75;9.73;;;10.30;99.90;;;;;;6156440;23;20005;-86
2021/10/13 04:21:59;;;;;;;18.25;10.23;;;10.30;99.90;;;;;;6192230;23;19989;-86
2021/10/13 04:24:25;;;;;;;16.25;10.45;;;10.30;99.90;;;;;;6159776;23;20092;-89
2021/10/13 04:26:51;;;;;;;16.75;10.70;;;10.20;99.90;;;;;;6156195;23;20009;-88
2021/10/13 04:29:17;;;;;;;20.40;10.40;;;10.20;99.90;;;;;;6182670;23;20025;-88
2021/10/13 04:31:42;;;;;;;19.67;11.00;;;10.20;99.90;;;;;;6182416;23;20153;-88
2021/10/13 04:34:08;;;;;;;20.23;12.02;;;10.20;99.90;;;;;;6182521;23;20005;-88
2021/10/13 04:36:33;;;;;;;17.95;11.18;;;10.20;99.90;;;;;;6182267;23;20028;-88
2021/10/13 04:38:59;;;;;;;19.40;11.20;;;10.20;99.90;;;;;;6181905;23;20437;-88
2021/10/13 04:41:25;;;;;;;28.58;11.75;;;10.20;99.90;;;;;;6185711;23;19989;-88
2021/10/13 04:43:50;;;;;;;20.23;11.75;;;10.20;99.90;;;;;;6184140;23;20005;-87
2021/10/13 04:46:16;;;;;;;18.42;10.20;;;10.20;99.90;;;;;;6156036;23;20005;-90
2021/10/13 04:48:42;;;;;;;18.33;10.05;;;10.20;99.90;;;;;;6182330;23;20020;-87
2021/10/13 04:51:07;;;;;;;20.08;10.63;;;10.20;99.90;;;;;;6187585;23;20463;-88
2021/10/13 04:53:33;;;;;;;21.58;10.90;;;10.20;99.90;;;;;;6181932;23;20025;-88
2021/10/13 04:55:59;;;;;;;25.20;10.70;;;10.20;99.90;;;;;;6182098;23;20076;-88
2021/10/13 04:58:24;;;;;;;19.48;10.40;;;10.20;99.90;;;;;;6182341;23;20059;-88
2021/10/13 05:00:50;;;;;;;17.52;10.00;;;10.20;99.90;;;;;;6186977;23;19998;-87
2021/10/13 05:03:16;;;;;;;16.98;9.95;;;10.30;99.90;;;;;;6187205;23;20446;-88
2021/10/13 05:05:42;;;;;;;19.88;9.88;;;10.30;99.90;;;;;;6182392;23;20001;-88
2021/10/13 05:08:07;;;;;;;23.50;9.98;;;10.30;99.90;;;;;;6156438;23;20016;-88
2021/10/13 05:10:35;;;;;;;17.73;10.55;;;10.30;99.90;;;;;;6155751;23;20051;-88
2021/10/13 05:13:01;;;;;;;23.35;10.75;;;10.30;99.90;;;;;;6181814;23;20391;-88
2021/10/13 05:15:26;;;;;;;15.80;10.10;;;10.30;99.90;;;;;;6155353;23;20001;-88
2021/10/13 05:17:52;;;;;;;17.25;9.57;;;10.30;99.90;;;;;;6183449;23;20122;-88
2021/10/13 05:20:18;;;;;;;16.13;9.13;;;10.20;99.90;;;;;;6156093;23;20012;-87
2021/10/13 05:22:43;;;;;;;15.82;9.23;;;10.20;99.90;;;;;;6182461;23;20001;-89
2021/10/13 05:25:09;;;;;;;13.93;8.70;;;10.20;99.90;;;;;;6182691;23;20430;-88
2021/10/13 05:27:35;;;;;;;24.23;10.57;;;10.20;99.90;;;;;;6182133;23;20016;-88
2021/10/13 05:30:02;;;;;;;18.35;9.45;;;10.20;99.90;;;;;;6182351;23;20075;-88
2021/10/13 05:32:28;;;;;;;15.55;9.80;;;10.20;99.90;;;;;;6181978;23;20005;-88
2021/10/13 05:34:53;;;;;;;19.52;9.80;;;10.20;99.90;;;;;;6156029;23;20112;-88
2021/10/13 05:37:19;;;;;;;19.35;8.85;;;10.20;99.90;;;;;;6155650;23;20014;-88
2021/10/13 05:39:45;;;;;;;21.38;9.60;;;10.10;99.90;;;;;;6182402;23;20400;-88
2021/10/13 05:42:10;;;;;;;20.25;9.32;;;10.10;99.90;;;;;;6182680;23;20005;-88
2021/10/13 05:44:36;;;;;;;17.05;9.70;;;10.10;99.90;;;;;;6182165;23;20430;-88
2021/10/13 05:47:02;;;;;;;14.13;9.27;;;10.10;99.90;;;;;;6182379;23;20005;-88
2021/10/13 05:49:27;;;;;;;17.48;9.52;;;10.10;99.90;;;;;;6155816;23;20160;-88
2021/10/13 05:51:53;;;;;;;16.38;10.60;;;10.00;99.90;;;;;;6181900;23;20001;-88
2021/10/13 05:54:19;;;;;;;18.17;10.27;;;10.10;99.90;;;;;;6181610;23;19997;-88
2021/10/13 05:56:49;;;;;;;16.02;10.18;;;10.10;99.90;;;;;;6155271;23;20544;-87
2021/10/13 05:59:14;;;;;;;18.95;9.73;;;10.10;99.90;;;;;;6155215;23;20386;-88
2021/10/13 06:01:40;;;;;;;18.65;9.70;;;10.00;99.90;;;;;;6181425;23;19997;-88
2021/10/13 06:04:06;;;;;;;18.17;10.20;;;10.00;99.90;;;;;;6181937;23;20005;-88
2021/10/13 06:06:31;;;;;;;16.27;10.30;;;10.00;99.90;;;;;;6181550;23;20001;-88
2021/10/13 06:08:57;;;;;;;17.17;9.80;;;10.00;99.90;;;;;;6155054;23;20009;-87
2021/10/13 06:11:22;;;;;;;18.23;10.23;;;10.00;99.90;;;;;;6183113;23;20052;-88
2021/10/13 06:13:48;;;;;;;16.80;10.18;;;10.00;99.90;;;;;;6183505;23;20378;-88
2021/10/13 06:16:14;;;;;;;19.13;11.00;;;10.00;99.90;;;;;;6183149;23;20001;-88
2021/10/13 06:18:40;;;;;;;19.52;10.05;;;10.00;99.90;;;;;;6156694;23;20354;-87
2021/10/13 06:21:06;;;;;;;16.25;10.40;;;10.00;99.90;;;;;;6184029;23;20056;-87
2021/10/13 06:23:32;;;;;;;20.17;10.57;;;10.00;99.90;;;;;;6156924;23;20016;-88
2021/10/13 06:25:57;;;;;;;18.60;9.15;;;10.00;99.90;;;;;;6183659;23;20338;-88
2021/10/13 06:28:23;;;;;;;20.17;10.38;;;10.00;99.90;;;;;;6183149;23;20005;-88
2021/10/13 06:30:49;;;;;;;19.30;11.48;;;10.00;99.90;;;;;;6183445;23;20008;-87
2021/10/13 06:33:14;;;;;;;21.15;10.48;;;10.00;99.90;;;;;;6184034;23;20001;-88
2021/10/13 06:35:40;;;;;;;16.83;10.27;;;10.00;99.90;;;;;;6184149;23;20490;-88
2021/10/13 06:38:06;;;;;;;22.27;10.27;;;10.00;99.90;;;;;;6184099;23;20017;-88
2021/10/13 06:40:31;;;;;;;20.75;10.18;;;10.00;99.90;;;;;;6183672;23;20005;-88
2021/10/13 06:43:00;;;;;;;13.82;9.60;;;10.00;99.90;;;;;;6157589;23;20064;-88
2021/10/13 06:45:26;;;;;;;19.15;9.90;;;10.10;99.90;;;;;;6157609;23;20001;-88
2021/10/13 06:47:52;;;;;;;17.30;9.95;;;10.10;99.90;;;;;;6156560;23;20005;-88
2021/10/13 06:50:17;;;;;;;15.10;8.88;;;10.10;99.90;;;;;;6183168;23;20002;-88
2021/10/13 06:52:43;;;;;;;20.30;13.10;;;10.20;99.90;;;;;;6156840;23;20093;-87
2021/10/13 06:55:13;;;;;;;20.63;15.32;;;10.20;99.90;;;;;;6157034;23;20005;-88
2021/10/13 06:57:39;;;;;;;18.08;11.30;;;10.20;99.90;;;;;;6156459;23;20021;-87
2021/10/13 07:00:06;;;;;;;16.67;10.45;;;10.30;99.90;;;;;;6183152;23;20001;-88
2021/10/13 07:02:31;;;;;;;18.83;10.57;;;10.30;99.90;;;;;;6157147;23;20378;-87
2021/10/13 07:04:57;;;;;;;20.58;11.52;;;10.40;99.90;;;;;;6183985;23;20090;-87
2021/10/13 07:07:22;;;;;;;17.90;10.65;;;10.40;99.90;;;;;;6184225;23;20336;-87
2021/10/13 07:09:48;;;;;;;21.50;10.27;;;10.50;99.90;;;;;;6184043;23;20330;-88
2021/10/13 07:12:14;;;;;;;19.50;9.48;;;10.50;99.90;;;;;;6183710;23;19997;-87
2021/10/13 07:14:40;;;;;;;20.70;10.95;;;10.50;99.90;;;;;;6183931;23;20005;-87
2021/10/13 07:17:05;;;;;;;16.88;9.90;;;10.40;99.90;;;;;;6183372;23;20265;-88
2021/10/13 07:19:31;;;;;;;16.88;9.45;;;10.50;99.90;;;;;;6157116;23;20001;-87
2021/10/13 07:21:56;;;;;;;18.80;10.75;;;10.50;99.90;;;;;;6183015;23;20084;-88
2021/10/13 07:24:22;;;;;;;18.75;11.70;;;10.60;99.90;;;;;;6183336;23;20226;-88
2021/10/13 07:26:48;;;;;;;24.42;12.38;;;10.70;99.90;;;;;;6183626;23;20043;-88
2021/10/13 07:29:14;;;;;;;20.05;11.35;;;10.80;99.90;;;;;;6183476;23;20060;-88
2021/10/13 07:31:40;;;;;;;20.35;12.23;;;10.90;99.90;;;;;;6183193;23;20005;-88
2021/10/13 07:34:05;;;;;;;21.88;10.60;;;10.80;99.90;;;;;;6183262;23;20036;-87
2021/10/13 07:36:32;;;;;;;23.80;10.40;;;10.80;99.90;;;;;;6156683;23;20001;-88
2021/10/13 07:38:58;;;;;;;20.67;10.27;;;10.90;99.90;;;;;;6183186;23;20017;-87
2021/10/13 07:41:26;;;;;;;17.40;8.50;;;10.90;99.90;;;;;;6156941;23;20051;-87
2021/10/13 07:43:52;;;;;;;21.65;8.68;;;11.00;99.90;;;;;;6183642;23;20248;-87
2021/10/13 07:46:18;;;;;;;13.40;8.43;;;11.10;99.90;;;;;;6183177;23;20296;-88
2021/10/13 07:48:43;;;;;;;18.27;8.70;;;11.30;99.90;;;;;;6152907;23;20025;-88
2021/10/13 07:51:10;;;;;;;15.60;8.10;;;11.30;99.90;;;;;;6156602;23;20088;-88
2021/10/13 07:53:36;;;;;;;13.63;8.68;;;11.30;99.90;;;;;;6156720;23;20005;-88
2021/10/13 07:56:02;;;;;;;13.70;8.20;;;11.40;99.90;;;;;;6183358;23;20012;-87
2021/10/13 07:58:28;;;;;;;19.45;10.23;;;11.40;99.90;;;;;;6183409;23;20148;-88
2021/10/13 08:00:53;;;;;;;17.55;7.72;;;11.50;99.90;;;;;;6183309;23;20004;-87
2021/10/13 08:03:19;;;;;;;16.00;8.48;;;11.60;99.90;;;;;;6183275;23;20005;-88
2021/10/13 08:05:44;;;;;;;36.70;10.77;;;11.70;99.90;;;;;;6157046;23;20005;-88
2021/10/13 08:08:12;;;;;;;22.42;8.30;;;11.80;99.90;;;;;;6183216;23;20142;-87
2021/10/13 08:10:37;;;;;;;15.23;8.35;;;11.90;99.90;;;;;;6182884;23;20001;-87
2021/10/13 08:13:03;;;;;;;14.23;7.45;;;11.80;99.90;;;;;;6183082;23;20465;-88
2021/10/13 08:15:29;;;;;;;19.10;9.07;;;11.90;99.90;;;;;;6183185;23;20437;-88
2021/10/13 08:17:54;;;;;;;16.48;8.75;;;12.10;99.90;;;;;;6182683;23;20398;-88
2021/10/13 08:20:20;;;;;;;41.55;18.08;;;12.10;99.90;;;;;;6183330;23;20029;-88
2021/10/13 08:22:48;;;;;;;18.75;9.77;;;12.20;99.90;;;;;;6183218;23;20005;-87
2021/10/13 08:25:15;;;;;;;21.90;10.05;;;12.20;99.90;;;;;;6183417;23;20091;-87
2021/10/13 08:27:40;;;;;;;19.73;9.25;;;12.30;99.90;;;;;;6182684;23;20012;-87
2021/10/13 08:30:09;;;;;;;15.95;8.45;;;12.40;99.90;;;;;;6182962;23;20005;-88
2021/10/13 08:32:35;;;;;;;17.05;8.50;;;12.50;99.90;;;;;;6182034;23;20005;-88
2021/10/13 08:35:01;;;;;;;14.57;8.13;;;12.60;99.90;;;;;;6182179;23;20001;-88
2021/10/13 08:37:27;;;;;;;22.95;9.70;;;12.70;99.90;;;;;;6181945;23;20446;-88
2021/10/13 08:39:53;;;;;;;17.95;8.93;;;12.80;99.90;;;;;;6182216;23;19997;-88
2021/10/13 08:42:23;;;;;;;16.73;7.72;;;12.90;99.90;;;;;;6155894;23;20012;-88
2021/10/13 08:44:49;;;;;;;11.60;6.70;;;13.00;99.90;;;;;;6182635;23;20041;-88
2021/10/13 08:47:15;;;;;;;13.38;7.20;;;13.10;99.90;;;;;;6182339;23;20055;-87
2021/10/13 08:49:41;;;;;;;16.42;7.57;;;13.10;99.90;;;;;;6182212;23;20017;-87
2021/10/13 08:52:10;;;;;;;15.65;6.93;;;13.20;99.90;;;;;;6182902;23;20032;-88
2021/10/13 08:54:37;;;;;;;16.58;7.35;;;13.30;99.90;;;;;;6182693;23;20072;-87
2021/10/13 08:57:23;;;;;;;14.95;7.30;;;13.30;99.90;;;;;;6182917;23;20001;-88
2021/10/13 08:59:51;;;;;;;13.65;7.32;;;13.50;99.90;;;;;;6182988;23;20012;-87
2021/10/13 09:02:35;;;;;;;15.43;6.97;;;13.50;99.90;;;;;;6182256;23;20039;-87
2021/10/13 09:05:13;;;;;;;15.45;7.72;;;13.50;99.90;;;;;;6182186;23;20005;-87
2021/10/13 09:07:47;;;;;;;18.95;9.02;;;13.60;99.90;;;;;;6181635;23;20001;-88
2021/10/13 09:10:13;;;;;;;33.85;19.73;;;13.60;99.90;;;;;;6182162;23;20001;-88
2021/10/13 09:12:40;;;;;;;27.13;14.10;;;13.70;99.90;;;;;;6181774;23;19997;-87
2021/10/13 09:15:16;;;;;;;29.63;13.38;;;13.60;99.90;;;;;;6155497;23;20016;-88
2021/10/13 09:17:55;;;;;;;25.13;13.75;;;13.70;99.90;;;;;;6155674;23;20269;-87
2021/10/13 09:20:24;;;;;;;17.45;8.68;;;13.80;99.90;;;;;;6182804;23;20384;-87
2021/10/13 09:23:00;;;;;;;21.33;8.07;;;13.80;99.90;;;;;;6183092;23;20188;-87
2021/10/13 09:25:26;;;;;;;14.07;6.68;;;13.90;99.90;;;;;;6182640;23;20001;-87
2021/10/13 09:27:51;;;;;;;16.08;7.50;;;14.00;99.90;;;;;;6155893;23;20016;-87
2021/10/13 09:30:25;;;;;;;10.63;6.03;;;14.10;99.90;;;;;;6182641;23;19997;-87
2021/10/13 09:32:54;;;;;;;14.00;6.60;;;14.20;99.90;;;;;;6181576;23;20012;-87
2021/10/13 09:35:27;;;;;;;11.25;5.70;;;14.30;99.90;;;;;;6182103;23;20126;-87
2021/10/13 09:37:53;;;;;;;14.38;5.85;;;14.40;99.90;;;;;;6182043;23;20009;-87
2021/10/13 09:40:25;;;;;;;11.32;5.55;;;14.50;99.90;;;;;;6182519;23;20059;-87
2021/10/13 09:42:53;;;;;;;12.90;5.85;;;14.60;99.90;;;;;;6181813;23;20033;-87
2021/10/13 09:45:18;;;;;;;11.68;5.65;;;14.60;99.90;;;;;;6182483;23;20004;-87
2021/10/13 09:47:44;;;;;;;13.27;5.65;;;14.70;99.90;;;;;;6157079;23;20005;-87
2021/10/13 09:50:14;;;;;;;11.30;5.13;;;14.80;99.90;;;;;;6184281;23;20009;-87
2021/10/13 09:52:41;;;;;;;11.57;4.97;;;14.90;99.90;;;;;;6183845;23;20001;-87
2021/10/13 09:55:12;;;;;;;12.98;5.00;;;14.90;99.90;;;;;;6157308;23;20005;-87
2021/10/13 09:57:45;;;;;;;11.18;4.72;;;15.00;99.90;;;;;;6183498;23;20093;-87
2021/10/13 10:00:13;;;;;;;8.50;4.80;;;15.10;99.90;;;;;;6183805;23;20001;-87
2021/10/13 10:02:52;;;;;;;9.57;4.50;;;15.10;99.90;;;;;;6183850;23;20001;-87
2021/10/13 10:05:22;;;;;;;9.90;4.25;;;15.20;99.90;;;;;;6184506;23;20080;-88
2021/10/13 10:08:07;;;;;;;9.95;4.75;;;15.20;99.90;;;;;;6184042;23;20072;-87
2021/10/13 10:10:34;;;;;;;11.88;4.55;;;15.30;99.90;;;;;;6184142;23;20063;-88
2021/10/13 10:13:08;;;;;;;8.43;4.38;;;15.30;99.90;;;;;;6157900;23;20001;-87
2021/10/13 10:15:40;;;;;;;9.88;4.45;;;15.40;99.90;;;;;;6184594;23;20237;-88
2021/10/13 10:18:26;;;;;;;12.00;5.20;;;15.50;99.90;;;;;;6185438;23;20009;-87
2021/10/13 10:20:53;;;;;;;12.20;4.97;;;15.40;99.90;;;;;;6183662;23;20426;-87
2021/10/13 10:23:30;;;;;;;13.38;5.05;;;15.50;99.90;;;;;;6157744;23;20009;-87
2021/10/13 10:26:17;;;;;;;13.13;5.68;;;15.50;99.90;;;;;;6158856;23;19997;-88
2021/10/13 10:28:55;;;;;;;11.45;5.60;;;15.60;99.90;;;;;;6187903;23;20186;-86
2021/10/13 10:31:31;;;;;;;11.32;5.38;;;15.70;99.90;;;;;;6196965;23;19997;-87
2021/10/13 10:34:02;;;;;;;16.08;7.43;;;15.80;99.90;;;;;;6198405;23;20032;-88
2021/10/13 10:36:29;;;;;;;11.88;6.00;;;15.90;99.90;;;;;;6194945;23;20004;-87
2021/10/13 10:38:55;;;;;;;15.55;6.10;;;16.00;99.90;;;;;;6190744;23;20556;-88
2021/10/13 10:41:21;;;;;;;11.35;5.80;;;16.10;99.90;;;;;;6183821;23;20071;-87
2021/10/13 10:43:47;;;;;;;13.73;7.18;;;16.20;99.90;;;;;;6184226;23;20441;-87
2021/10/13 10:46:12;;;;;;;20.70;8.10;;;16.20;99.90;;;;;;6184069;23;20001;-87
2021/10/13 10:48:48;;;;;;;28.08;10.00;;;16.30;99.90;;;;;;6183063;23;20016;-88
2021/10/13 10:51:14;;;;;;;24.08;7.82;;;16.40;99.90;;;;;;6182862;23;20040;-87
2021/10/13 10:53:41;;;;;;;21.98;8.85;;;16.50;99.90;;;;;;6182869;23;20391;-88
2021/10/13 10:56:27;;;;;;;21.23;8.48;;;16.60;99.90;;;;;;6182630;23;20063;-88
2021/10/13 10:59:01;;;;;;;14.52;7.25;;;16.60;99.90;;;;;;6182611;23;20009;-88
2021/10/13 11:01:27;;;;;;;13.02;7.32;;;16.70;99.90;;;;;;6181206;23;20005;-87
2021/10/13 11:03:52;;;;;;;12.25;5.40;;;16.80;99.90;;;;;;6156729;23;20329;-87
2021/10/13 11:06:20;;;;;;;18.73;7.32;;;17.00;99.90;;;;;;6156450;23;20005;-87
2021/10/13 11:09:09;;;;;;;17.15;7.88;;;17.10;99.90;;;;;;6183189;23;19997;-88
2021/10/13 11:11:41;;;;;;;17.20;8.60;;;17.10;99.90;;;;;;6183749;23;20024;-88
2021/10/13 11:14:11;;;;;;;48.15;16.50;;;17.20;99.90;;;;;;6156430;23;20016;-87
2021/10/13 11:16:39;;;;;;;64.68;20.55;;;17.30;99.90;;;;;;6182634;23;20058;-87
2021/10/13 11:19:22;;;;;;;18.20;6.40;;;17.20;99.90;;;;;;6183045;23;20009;-87
2021/10/13 11:22:09;;;;;;;31.80;9.43;;;17.30;99.90;;;;;;6156470;23;20005;-87
2021/10/13 11:24:37;;;;;;;63.63;20.77;;;17.40;99.90;;;;;;6182871;23;20020;-87
2021/10/13 11:27:06;;;;;;;25.25;8.57;;;17.40;99.90;;;;;;6182888;23;20439;-87
2021/10/13 11:29:37;;;;;;;15.63;5.35;;;17.50;99.90;;;;;;6182816;23;20334;-88
2021/10/13 11:32:02;;;;;;;33.08;11.35;;;17.70;99.90;;;;;;6156171;23;20027;-87
2021/10/13 11:34:28;;;;;;;18.02;6.38;;;17.70;99.90;;;;;;6182176;23;20481;-87
2021/10/13 11:36:56;;;;;;;5.97;2.95;;;17.80;99.90;;;;;;6182427;23;20017;-87
2021/10/13 11:39:28;;;;;;;10.13;4.97;;;17.80;99.90;;;;;;6182970;23;20452;-87
2021/10/13 11:41:55;;;;;;;12.77;6.40;;;18.00;99.90;;;;;;6182749;23;19997;-88
2021/10/13 11:44:23;;;;;;;10.63;5.35;;;18.10;99.90;;;;;;6182516;23;20012;-87
2021/10/13 11:46:59;;;;;;;5.97;3.03;;;18.10;99.90;;;;;;6182845;23;20391;-87
2021/10/13 11:49:25;;;;;;;12.02;5.82;;;18.10;99.90;;;;;;6155219;23;20021;-88
2021/10/13 11:52:05;;;;;;;10.00;4.75;;;18.20;99.90;;;;;;6182463;23;20001;-88
2021/10/13 11:54:30;;;;;;;7.70;3.17;;;18.30;99.90;;;;;;6182544;23;20005;-88
2021/10/13 11:56:57;;;;;;;7.25;3.30;;;18.30;99.90;;;;;;6182397;23;20419;-87
2021/10/13 11:59:23;;;;;;;8.32;3.45;;;18.20;99.90;;;;;;6156097;23;20009;-87
2021/10/13 12:01:48;;;;;;;4.78;2.88;;;18.30;99.90;;;;;;6182590;23;20039;-88
2021/10/13 12:04:14;;;;;;;5.80;2.35;;;18.40;99.90;;;;;;6182817;23;20048;-88
2021/10/13 12:06:43;;;;;;;6.82;2.80;;;18.60;99.90;;;;;;6182337;23;20001;-87
2021/10/13 12:09:09;;;;;;;7.10;3.38;;;18.60;99.90;;;;;;6182336;23;20005;-87
2021/10/13 12:11:39;;;;;;;5.97;3.00;;;18.80;99.90;;;;;;6182410;23;20010;-87
2021/10/13 12:14:14;;;;;;;7.38;3.35;;;19.10;99.90;;;;;;6182124;23;20051;-87
2021/10/13 12:16:41;;;;;;;6.68;2.92;;;19.40;99.90;;;;;;6182426;23;19993;-87
2021/10/13 12:19:14;;;;;;;8.30;3.78;;;19.50;99.90;;;;;;6182211;23;20059;-87
2021/10/13 12:22:00;;;;;;;8.00;3.40;;;19.70;99.90;;;;;;6182394;23;20051;-87
2021/10/13 12:24:26;;;;;;;6.50;3.17;;;20.10;99.90;;;;;;6182343;23;20084;-87
2021/10/13 12:26:52;;;;;;;9.23;2.42;;;20.10;99.90;;;;;;6155668;23;20054;-88
2021/10/13 12:29:18;;;;;;;6.43;2.70;;;19.80;99.90;;;;;;6182239;23;20009;-88
2021/10/13 12:31:45;;;;;;;8.15;2.97;;;19.50;99.90;;;;;;6182318;23;20004;-88
2021/10/13 12:34:15;;;;;;;7.13;2.47;;;19.20;99.90;;;;;;6182146;23;20116;-88
2021/10/13 12:36:54;;;;;;;5.75;2.55;;;19.10;99.90;;;;;;6182192;23;20024;-87
2021/10/13 12:39:30;;;;;;;6.85;2.80;;;19.20;99.90;;;;;;6182383;23;20080;-88
2021/10/13 12:42:10;;;;;;;6.47;3.15;;;19.40;99.90;;;;;;6182266;23;20008;-88